Portada
METAR-TAF:

METAR-TAF

Aeropuertos :

Beirut, Líbano

latitud: 33-49N, longitud: 035-29E, altitud: 29 m

Observación

El informe se hizo hace 29 minutos, a las 06:00 UTC
Viento 11 kt del sur-suroeste
Temperatura 26°C
Humedad 61%
Presión 1013 hPa
Visibilidad 10 km o más
sin nubes por debajo de 1500 m y sin presencia de cumulonimbus.

METAR: OLBA 190600Z 21011KT CAVOK 26/18 Q1013 NOSIG

Hora: 09:29 (06:29 UTC)

Pronóstico

El informe se hizo hace 2 horas y 29 minutos, a las 04:00 UTC
Pronóstico válido del 19 a las 06 UTC al 20 a las 12 UTC
Viento 15 kt del suroeste
Visibilidad: 8000 m
Escasas nubes a una altura de 2700 ft
Temporalmente
del 19 a las 18 UTC al 20 a las 06 UTC
Visibilidad: 5000 m
neblina

TAF: OLBA 190400Z 1906/2012 22015KT 8000 FEW027 TEMPO 1918/2006 5000 BR

Observaciones y pronósticos meteorológicos de más de 4000 aeropuertos (mensajes METAR y TAF).

Los puntos amarillos y rojos representan las estaciones disponibles.

Ponga el ratón en el punto deseado para ver el nombre de la estación.

Haga clic para ver las observaciones y los pronósticos meteorológicos.

Para cambiar el mapa : haga clic en los botones verdes con una cruz de color negro para hacer un zoom, en el botón verde con un guión para alejar o en las flechas verdes para mapas adyacentes.


METAR-TAF: